sensor_id;sensor_type;location;lat;lon;timestamp;P1;durP1;ratioP1;P2;durP2;ratioP2
54259;SDS011;40172;53.022;7.012;2024-03-22T00:01:10;38.28;;;33.33;;
54259;SDS011;40172;53.022;7.012;2024-03-22T00:03:36;41.17;;;32.95;;
54259;SDS011;40172;53.022;7.012;2024-03-22T00:06:02;39.15;;;33.42;;
54259;SDS011;40172;53.022;7.012;2024-03-22T00:08:27;41.58;;;34.38;;
54259;SDS011;40172;53.022;7.012;2024-03-22T00:10:53;43.15;;;35.45;;
54259;SDS011;40172;53.022;7.012;2024-03-22T00:13:19;45.08;;;35.20;;
54259;SDS011;40172;53.022;7.012;2024-03-22T00:15:44;45.63;;;35.88;;
54259;SDS011;40172;53.022;7.012;2024-03-22T00:18:10;43.13;;;36.05;;
54259;SDS011;40172;53.022;7.012;2024-03-22T00:20:36;44.17;;;36.72;;
54259;SDS011;40172;53.022;7.012;2024-03-22T00:23:02;45.30;;;35.42;;
54259;SDS011;40172;53.022;7.012;2024-03-22T00:25:28;46.35;;;37.13;;
54259;SDS011;40172;53.022;7.012;2024-03-22T00:27:54;47.72;;;36.65;;
54259;SDS011;40172;53.022;7.012;2024-03-22T00:30:20;49.72;;;38.58;;
54259;SDS011;40172;53.022;7.012;2024-03-22T00:32:46;46.78;;;39.25;;
54259;SDS011;40172;53.022;7.012;2024-03-22T00:35:12;50.60;;;39.60;;
54259;SDS011;40172;53.022;7.012;2024-03-22T00:37:38;50.80;;;40.45;;
54259;SDS011;40172;53.022;7.012;2024-03-22T00:40:04;50.70;;;40.50;;
54259;SDS011;40172;53.022;7.012;2024-03-22T00:42:30;51.83;;;39.70;;
54259;SDS011;40172;53.022;7.012;2024-03-22T00:44:56;54.78;;;41.67;;
54259;SDS011;40172;53.022;7.012;2024-03-22T00:47:22;59.63;;;43.15;;
54259;SDS011;40172;53.022;7.012;2024-03-22T00:49:48;56.33;;;43.53;;
54259;SDS011;40172;53.022;7.012;2024-03-22T00:52:14;56.60;;;43.00;;
54259;SDS011;40172;53.022;7.012;2024-03-22T00:54:40;55.70;;;43.38;;
54259;SDS011;40172;53.022;7.012;2024-03-22T00:57:06;59.20;;;43.83;;
54259;SDS011;40172;53.022;7.012;2024-03-22T00:59:31;58.75;;;43.80;;
54259;SDS011;40172;53.022;7.012;2024-03-22T01:01:57;58.10;;;44.45;;
54259;SDS011;40172;53.022;7.012;2024-03-22T01:04:23;60.38;;;45.22;;
54259;SDS011;40172;53.022;7.012;2024-03-22T01:06:49;60.63;;;46.38;;
54259;SDS011;40172;53.022;7.012;2024-03-22T01:09:14;64.20;;;47.17;;
54259;SDS011;40172;53.022;7.012;2024-03-22T01:11:40;66.53;;;47.10;;
54259;SDS011;40172;53.022;7.012;2024-03-22T01:14:06;64.53;;;49.13;;
54259;SDS011;40172;53.022;7.012;2024-03-22T01:16:31;64.00;;;47.80;;
54259;SDS011;40172;53.022;7.012;2024-03-22T01:18:57;68.07;;;49.67;;
54259;SDS011;40172;53.022;7.012;2024-03-22T01:21:23;67.85;;;49.90;;
54259;SDS011;40172;53.022;7.012;2024-03-22T01:23:53;70.75;;;49.22;;
54259;SDS011;40172;53.022;7.012;2024-03-22T01:26:19;70.38;;;50.97;;
54259;SDS011;40172;53.022;7.012;2024-03-22T01:28:44;66.40;;;49.75;;
54259;SDS011;40172;53.022;7.012;2024-03-22T01:31:11;72.80;;;51.42;;
54259;SDS011;40172;53.022;7.012;2024-03-22T01:33:37;72.20;;;50.67;;
54259;SDS011;40172;53.022;7.012;2024-03-22T01:36:02;68.80;;;49.92;;
54259;SDS011;40172;53.022;7.012;2024-03-22T01:38:30;71.15;;;49.85;;
54259;SDS011;40172;53.022;7.012;2024-03-22T01:40:56;74.10;;;52.03;;
54259;SDS011;40172;53.022;7.012;2024-03-22T01:43:22;71.18;;;51.10;;
54259;SDS011;40172;53.022;7.012;2024-03-22T01:45:47;71.22;;;50.38;;
54259;SDS011;40172;53.022;7.012;2024-03-22T01:48:13;73.25;;;52.08;;
54259;SDS011;40172;53.022;7.012;2024-03-22T01:50:39;73.95;;;51.17;;
54259;SDS011;40172;53.022;7.012;2024-03-22T01:53:06;72.25;;;51.20;;
54259;SDS011;40172;53.022;7.012;2024-03-22T01:55:32;71.72;;;51.97;;
54259;SDS011;40172;53.022;7.012;2024-03-22T01:57:57;73.68;;;52.38;;
54259;SDS011;40172;53.022;7.012;2024-03-22T02:00:24;73.47;;;53.25;;
54259;SDS011;40172;53.022;7.012;2024-03-22T02:02:49;73.15;;;52.50;;
54259;SDS011;40172;53.022;7.012;2024-03-22T02:05:15;75.40;;;51.92;;
54259;SDS011;40172;53.022;7.012;2024-03-22T02:07:46;78.72;;;53.53;;
54259;SDS011;40172;53.022;7.012;2024-03-22T02:10:12;80.47;;;53.63;;
54259;SDS011;40172;53.022;7.012;2024-03-22T02:12:39;79.38;;;54.65;;
54259;SDS011;40172;53.022;7.012;2024-03-22T02:15:05;74.40;;;53.45;;
54259;SDS011;40172;53.022;7.012;2024-03-22T02:17:34;78.40;;;54.58;;
54259;SDS011;40172;53.022;7.012;2024-03-22T02:20:00;84.40;;;53.80;;
54259;SDS011;40172;53.022;7.012;2024-03-22T02:22:27;85.35;;;56.90;;
54259;SDS011;40172;53.022;7.012;2024-03-22T02:24:53;81.55;;;54.83;;
54259;SDS011;40172;53.022;7.012;2024-03-22T02:27:19;80.63;;;53.88;;
54259;SDS011;40172;53.022;7.012;2024-03-22T02:29:45;80.82;;;54.92;;
54259;SDS011;40172;53.022;7.012;2024-03-22T02:32:10;86.55;;;56.40;;
54259;SDS011;40172;53.022;7.012;2024-03-22T02:34:36;83.82;;;56.50;;
54259;SDS011;40172;53.022;7.012;2024-03-22T02:37:02;83.22;;;54.22;;
54259;SDS011;40172;53.022;7.012;2024-03-22T02:39:28;82.90;;;55.50;;
54259;SDS011;40172;53.022;7.012;2024-03-22T02:41:54;81.20;;;54.15;;
54259;SDS011;40172;53.022;7.012;2024-03-22T02:44:20;80.05;;;54.25;;
54259;SDS011;40172;53.022;7.012;2024-03-22T02:46:45;86.28;;;55.60;;
54259;SDS011;40172;53.022;7.012;2024-03-22T02:49:11;84.75;;;55.83;;
54259;SDS011;40172;53.022;7.012;2024-03-22T02:51:37;81.85;;;54.55;;
54259;SDS011;40172;53.022;7.012;2024-03-22T02:54:03;88.80;;;56.40;;
54259;SDS011;40172;53.022;7.012;2024-03-22T02:56:29;84.65;;;57.00;;
54259;SDS011;40172;53.022;7.012;2024-03-22T02:58:55;87.38;;;56.95;;
54259;SDS011;40172;53.022;7.012;2024-03-22T03:01:20;89.25;;;57.58;;
54259;SDS011;40172;53.022;7.012;2024-03-22T03:03:46;88.85;;;58.25;;
54259;SDS011;40172;53.022;7.012;2024-03-22T03:06:12;85.90;;;56.85;;
54259;SDS011;40172;53.022;7.012;2024-03-22T03:08:38;89.25;;;57.05;;
54259;SDS011;40172;53.022;7.012;2024-03-22T03:11:04;89.70;;;57.15;;
54259;SDS011;40172;53.022;7.012;2024-03-22T03:13:30;96.32;;;57.80;;
54259;SDS011;40172;53.022;7.012;2024-03-22T03:15:56;90.63;;;57.97;;
54259;SDS011;40172;53.022;7.012;2024-03-22T03:18:22;93.28;;;59.45;;
54259;SDS011;40172;53.022;7.012;2024-03-22T03:20:48;91.57;;;57.55;;
54259;SDS011;40172;53.022;7.012;2024-03-22T03:23:14;92.43;;;58.50;;
54259;SDS011;40172;53.022;7.012;2024-03-22T03:25:40;103.30;;;59.40;;
54259;SDS011;40172;53.022;7.012;2024-03-22T03:28:05;98.40;;;60.10;;
54259;SDS011;40172;53.022;7.012;2024-03-22T03:30:32;93.28;;;58.35;;
54259;SDS011;40172;53.022;7.012;2024-03-22T03:32:59;97.38;;;59.90;;
54259;SDS011;40172;53.022;7.012;2024-03-22T03:35:25;100.35;;;59.95;;
54259;SDS011;40172;53.022;7.012;2024-03-22T03:37:52;96.53;;;58.10;;
54259;SDS011;40172;53.022;7.012;2024-03-22T03:40:18;94.47;;;58.80;;
54259;SDS011;40172;53.022;7.012;2024-03-22T03:42:43;94.10;;;61.28;;
54259;SDS011;40172;53.022;7.012;2024-03-22T03:45:09;92.95;;;57.55;;
54259;SDS011;40172;53.022;7.012;2024-03-22T03:47:35;100.25;;;60.60;;
54259;SDS011;40172;53.022;7.012;2024-03-22T03:50:00;94.78;;;58.75;;
54259;SDS011;40172;53.022;7.012;2024-03-22T03:52:27;95.07;;;57.45;;
54259;SDS011;40172;53.022;7.012;2024-03-22T03:54:53;96.93;;;59.90;;
54259;SDS011;40172;53.022;7.012;2024-03-22T03:57:18;98.88;;;60.25;;
54259;SDS011;40172;53.022;7.012;2024-03-22T03:59:44;98.63;;;60.90;;
54259;SDS011;40172;53.022;7.012;2024-03-22T04:02:09;100.35;;;60.90;;
54259;SDS011;40172;53.022;7.012;2024-03-22T04:04:35;101.82;;;60.63;;
54259;SDS011;40172;53.022;7.012;2024-03-22T04:07:01;101.60;;;60.92;;
54259;SDS011;40172;53.022;7.012;2024-03-22T04:09:27;96.32;;;58.33;;
54259;SDS011;40172;53.022;7.012;2024-03-22T04:11:53;98.70;;;60.72;;
54259;SDS011;40172;53.022;7.012;2024-03-22T04:14:19;100.75;;;60.28;;
54259;SDS011;40172;53.022;7.012;2024-03-22T04:16:44;102.57;;;61.22;;
54259;SDS011;40172;53.022;7.012;2024-03-22T04:19:10;98.53;;;59.70;;
54259;SDS011;40172;53.022;7.012;2024-03-22T04:21:36;102.75;;;60.00;;
54259;SDS011;40172;53.022;7.012;2024-03-22T04:24:01;100.03;;;60.72;;
54259;SDS011;40172;53.022;7.012;2024-03-22T04:26:27;98.50;;;60.65;;
54259;SDS011;40172;53.022;7.012;2024-03-22T04:28:53;99.13;;;59.45;;
54259;SDS011;40172;53.022;7.012;2024-03-22T04:31:18;102.53;;;60.53;;
54259;SDS011;40172;53.022;7.012;2024-03-22T04:33:44;101.32;;;59.33;;
54259;SDS011;40172;53.022;7.012;2024-03-22T04:36:10;102.68;;;60.05;;
54259;SDS011;40172;53.022;7.012;2024-03-22T04:38:35;106.47;;;61.15;;
54259;SDS011;40172;53.022;7.012;2024-03-22T04:41:01;103.70;;;59.65;;
54259;SDS011;40172;53.022;7.012;2024-03-22T04:43:27;103.80;;;61.47;;
54259;SDS011;40172;53.022;7.012;2024-03-22T04:45:53;106.55;;;59.05;;
54259;SDS011;40172;53.022;7.012;2024-03-22T04:48:19;97.97;;;57.40;;
54259;SDS011;40172;53.022;7.012;2024-03-22T04:50:46;98.30;;;58.28;;
54259;SDS011;40172;53.022;7.012;2024-03-22T04:53:15;97.25;;;56.20;;
54259;SDS011;40172;53.022;7.012;2024-03-22T04:55:42;94.22;;;55.63;;
54259;SDS011;40172;53.022;7.012;2024-03-22T04:58:16;86.40;;;55.10;;
54259;SDS011;40172;53.022;7.012;2024-03-22T05:00:44;88.47;;;54.95;;
54259;SDS011;40172;53.022;7.012;2024-03-22T05:03:10;87.60;;;53.90;;
54259;SDS011;40172;53.022;7.012;2024-03-22T05:05:37;95.20;;;55.17;;
54259;SDS011;40172;53.022;7.012;2024-03-22T05:08:03;88.78;;;54.50;;
54259;SDS011;40172;53.022;7.012;2024-03-22T05:10:29;88.93;;;53.95;;
54259;SDS011;40172;53.022;7.012;2024-03-22T05:12:58;90.32;;;55.28;;
54259;SDS011;40172;53.022;7.012;2024-03-22T05:15:24;91.60;;;55.03;;
54259;SDS011;40172;53.022;7.012;2024-03-22T05:17:50;93.30;;;54.60;;
54259;SDS011;40172;53.022;7.012;2024-03-22T05:20:16;89.63;;;53.17;;
54259;SDS011;40172;53.022;7.012;2024-03-22T05:22:42;89.50;;;53.97;;
54259;SDS011;40172;53.022;7.012;2024-03-22T05:25:08;92.53;;;53.42;;
54259;SDS011;40172;53.022;7.012;2024-03-22T05:27:34;86.85;;;53.22;;
54259;SDS011;40172;53.022;7.012;2024-03-22T05:30:00;87.78;;;54.15;;
54259;SDS011;40172;53.022;7.012;2024-03-22T05:32:26;87.60;;;52.53;;
54259;SDS011;40172;53.022;7.012;2024-03-22T05:34:52;91.10;;;53.88;;
54259;SDS011;40172;53.022;7.012;2024-03-22T05:37:18;92.82;;;54.17;;
54259;SDS011;40172;53.022;7.012;2024-03-22T05:39:44;84.75;;;52.63;;
54259;SDS011;40172;53.022;7.012;2024-03-22T05:42:09;95.88;;;56.03;;
54259;SDS011;40172;53.022;7.012;2024-03-22T05:44:35;95.75;;;56.00;;
54259;SDS011;40172;53.022;7.012;2024-03-22T05:47:01;99.93;;;54.30;;
54259;SDS011;40172;53.022;7.012;2024-03-22T05:49:27;109.95;;;57.97;;
54259;SDS011;40172;53.022;7.012;2024-03-22T05:51:52;101.35;;;57.47;;
54259;SDS011;40172;53.022;7.012;2024-03-22T05:54:21;106.20;;;56.35;;
54259;SDS011;40172;53.022;7.012;2024-03-22T05:56:47;99.05;;;56.08;;
54259;SDS011;40172;53.022;7.012;2024-03-22T05:59:12;96.22;;;53.83;;
54259;SDS011;40172;53.022;7.012;2024-03-22T06:01:38;100.25;;;53.25;;
54259;SDS011;40172;53.022;7.012;2024-03-22T06:04:04;99.50;;;56.05;;
54259;SDS011;40172;53.022;7.012;2024-03-22T06:06:31;97.10;;;53.03;;
54259;SDS011;40172;53.022;7.012;2024-03-22T06:08:59;98.28;;;53.53;;
54259;SDS011;40172;53.022;7.012;2024-03-22T06:11:32;92.60;;;54.72;;
54259;SDS011;40172;53.022;7.012;2024-03-22T06:13:57;107.05;;;54.60;;
54259;SDS011;40172;53.022;7.012;2024-03-22T06:16:23;101.35;;;54.13;;
54259;SDS011;40172;53.022;7.012;2024-03-22T06:18:49;96.20;;;54.53;;
54259;SDS011;40172;53.022;7.012;2024-03-22T06:21:14;104.22;;;56.65;;
54259;SDS011;40172;53.022;7.012;2024-03-22T06:23:40;95.32;;;52.63;;
54259;SDS011;40172;53.022;7.012;2024-03-22T06:26:09;97.47;;;53.05;;
54259;SDS011;40172;53.022;7.012;2024-03-22T06:28:34;100.75;;;54.88;;
54259;SDS011;40172;53.022;7.012;2024-03-22T06:31:01;95.38;;;51.40;;
54259;SDS011;40172;53.022;7.012;2024-03-22T06:33:26;98.38;;;54.10;;
54259;SDS011;40172;53.022;7.012;2024-03-22T06:35:52;100.90;;;54.05;;
54259;SDS011;40172;53.022;7.012;2024-03-22T06:38:18;92.80;;;50.22;;
54259;SDS011;40172;53.022;7.012;2024-03-22T06:40:44;92.63;;;50.13;;
54259;SDS011;40172;53.022;7.012;2024-03-22T06:43:10;95.93;;;51.85;;
54259;SDS011;40172;53.022;7.012;2024-03-22T06:45:35;91.07;;;49.13;;
54259;SDS011;40172;53.022;7.012;2024-03-22T06:48:01;93.60;;;50.05;;
54259;SDS011;40172;53.022;7.012;2024-03-22T06:50:27;98.40;;;50.65;;
54259;SDS011;40172;53.022;7.012;2024-03-22T06:52:53;86.03;;;46.35;;
54259;SDS011;40172;53.022;7.012;2024-03-22T06:55:19;81.22;;;46.25;;
54259;SDS011;40172;53.022;7.012;2024-03-22T06:57:46;74.72;;;43.28;;
54259;SDS011;40172;53.022;7.012;2024-03-22T07:00:13;80.07;;;45.63;;
54259;SDS011;40172;53.022;7.012;2024-03-22T07:02:39;75.57;;;41.50;;
54259;SDS011;40172;53.022;7.012;2024-03-22T07:05:06;71.63;;;41.63;;
54259;SDS011;40172;53.022;7.012;2024-03-22T07:07:32;73.68;;;41.47;;
54259;SDS011;40172;53.022;7.012;2024-03-22T07:09:58;69.95;;;41.47;;
54259;SDS011;40172;53.022;7.012;2024-03-22T07:12:24;75.13;;;43.50;;
54259;SDS011;40172;53.022;7.012;2024-03-22T07:14:50;68.32;;;42.33;;
54259;SDS011;40172;53.022;7.012;2024-03-22T07:17:15;64.15;;;39.15;;
54259;SDS011;40172;53.022;7.012;2024-03-22T07:19:41;66.78;;;40.40;;
54259;SDS011;40172;53.022;7.012;2024-03-22T07:22:07;66.40;;;39.75;;
54259;SDS011;40172;53.022;7.012;2024-03-22T07:24:33;65.40;;;39.30;;
54259;SDS011;40172;53.022;7.012;2024-03-22T07:26:59;65.93;;;39.35;;
54259;SDS011;40172;53.022;7.012;2024-03-22T07:29:25;64.28;;;40.75;;
54259;SDS011;40172;53.022;7.012;2024-03-22T07:31:50;61.90;;;36.45;;
54259;SDS011;40172;53.022;7.012;2024-03-22T07:34:16;60.80;;;36.85;;
54259;SDS011;40172;53.022;7.012;2024-03-22T07:36:42;57.83;;;35.75;;
54259;SDS011;40172;53.022;7.012;2024-03-22T07:39:07;56.95;;;36.75;;
54259;SDS011;40172;53.022;7.012;2024-03-22T07:41:33;55.33;;;33.00;;
54259;SDS011;40172;53.022;7.012;2024-03-22T07:43:59;58.17;;;32.47;;
54259;SDS011;40172;53.022;7.012;2024-03-22T07:46:26;47.90;;;32.03;;
54259;SDS011;40172;53.022;7.012;2024-03-22T07:48:52;53.53;;;34.63;;
54259;SDS011;40172;53.022;7.012;2024-03-22T07:51:18;55.45;;;34.33;;
54259;SDS011;40172;53.022;7.012;2024-03-22T07:53:44;56.35;;;34.00;;
54259;SDS011;40172;53.022;7.012;2024-03-22T07:56:10;59.42;;;36.08;;
54259;SDS011;40172;53.022;7.012;2024-03-22T07:58:38;52.65;;;32.35;;
54259;SDS011;40172;53.022;7.012;2024-03-22T08:01:04;53.50;;;32.17;;
54259;SDS011;40172;53.022;7.012;2024-03-22T08:03:29;53.53;;;32.03;;
54259;SDS011;40172;53.022;7.012;2024-03-22T08:05:55;45.55;;;29.25;;
54259;SDS011;40172;53.022;7.012;2024-03-22T08:08:21;52.10;;;30.63;;
54259;SDS011;40172;53.022;7.012;2024-03-22T08:10:47;48.75;;;29.35;;
54259;SDS011;40172;53.022;7.012;2024-03-22T08:13:13;41.95;;;25.67;;
54259;SDS011;40172;53.022;7.012;2024-03-22T08:15:39;43.88;;;27.27;;
54259;SDS011;40172;53.022;7.012;2024-03-22T08:18:05;39.88;;;25.50;;
54259;SDS011;40172;53.022;7.012;2024-03-22T08:20:31;45.88;;;24.45;;
54259;SDS011;40172;53.022;7.012;2024-03-22T08:22:59;43.35;;;26.83;;
54259;SDS011;40172;53.022;7.012;2024-03-22T08:25:24;49.85;;;27.73;;
54259;SDS011;40172;53.022;7.012;2024-03-22T08:27:50;45.38;;;26.88;;
54259;SDS011;40172;53.022;7.012;2024-03-22T08:30:20;46.22;;;26.48;;
54259;SDS011;40172;53.022;7.012;2024-03-22T08:32:46;45.63;;;28.10;;
54259;SDS011;40172;53.022;7.012;2024-03-22T08:35:11;48.97;;;27.85;;
54259;SDS011;40172;53.022;7.012;2024-03-22T08:37:37;50.65;;;27.45;;
54259;SDS011;40172;53.022;7.012;2024-03-22T08:40:03;52.25;;;29.48;;
54259;SDS011;40172;53.022;7.012;2024-03-22T08:42:29;52.00;;;30.48;;
54259;SDS011;40172;53.022;7.012;2024-03-22T08:44:55;54.60;;;29.48;;
54259;SDS011;40172;53.022;7.012;2024-03-22T08:47:21;51.78;;;28.10;;
54259;SDS011;40172;53.022;7.012;2024-03-22T08:49:46;54.92;;;29.27;;
54259;SDS011;40172;53.022;7.012;2024-03-22T08:52:12;51.97;;;27.95;;
54259;SDS011;40172;53.022;7.012;2024-03-22T08:54:38;54.72;;;28.83;;
54259;SDS011;40172;53.022;7.012;2024-03-22T08:57:03;50.92;;;28.65;;
54259;SDS011;40172;53.022;7.012;2024-03-22T08:59:29;54.20;;;28.17;;
54259;SDS011;40172;53.022;7.012;2024-03-22T09:01:55;54.08;;;28.23;;
54259;SDS011;40172;53.022;7.012;2024-03-22T09:04:20;52.33;;;27.85;;
54259;SDS011;40172;53.022;7.012;2024-03-22T09:06:46;49.03;;;27.02;;
54259;SDS011;40172;53.022;7.012;2024-03-22T09:09:11;50.35;;;26.42;;
54259;SDS011;40172;53.022;7.012;2024-03-22T09:11:37;47.17;;;27.08;;
54259;SDS011;40172;53.022;7.012;2024-03-22T09:14:03;40.67;;;25.40;;
54259;SDS011;40172;53.022;7.012;2024-03-22T09:16:28;39.17;;;23.85;;
54259;SDS011;40172;53.022;7.012;2024-03-22T09:18:55;42.17;;;23.80;;
54259;SDS011;40172;53.022;7.012;2024-03-22T09:21:21;42.38;;;24.88;;
54259;SDS011;40172;53.022;7.012;2024-03-22T09:23:47;42.92;;;23.98;;
54259;SDS011;40172;53.022;7.012;2024-03-22T09:26:12;40.72;;;23.33;;
54259;SDS011;40172;53.022;7.012;2024-03-22T09:28:39;44.53;;;24.63;;
54259;SDS011;40172;53.022;7.012;2024-03-22T09:31:05;41.38;;;21.70;;
54259;SDS011;40172;53.022;7.012;2024-03-22T09:33:35;37.20;;;21.85;;
54259;SDS011;40172;53.022;7.012;2024-03-22T09:36:01;33.80;;;20.20;;
54259;SDS011;40172;53.022;7.012;2024-03-22T09:38:27;28.02;;;18.98;;
54259;SDS011;40172;53.022;7.012;2024-03-22T09:40:53;33.30;;;19.88;;
54259;SDS011;40172;53.022;7.012;2024-03-22T09:43:20;30.80;;;19.23;;
54259;SDS011;40172;53.022;7.012;2024-03-22T09:45:47;32.08;;;19.38;;
54259;SDS011;40172;53.022;7.012;2024-03-22T09:48:14;29.02;;;18.52;;
54259;SDS011;40172;53.022;7.012;2024-03-22T09:50:47;27.80;;;17.75;;
54259;SDS011;40172;53.022;7.012;2024-03-22T09:53:15;25.45;;;16.33;;
54259;SDS011;40172;53.022;7.012;2024-03-22T09:55:44;25.73;;;17.42;;
54259;SDS011;40172;53.022;7.012;2024-03-22T09:58:10;28.27;;;16.67;;
54259;SDS011;40172;53.022;7.012;2024-03-22T10:00:36;29.80;;;16.15;;
54259;SDS011;40172;53.022;7.012;2024-03-22T10:03:02;27.98;;;16.77;;
54259;SDS011;40172;53.022;7.012;2024-03-22T10:05:30;25.77;;;15.23;;
54259;SDS011;40172;53.022;7.012;2024-03-22T10:07:56;22.85;;;15.95;;
54259;SDS011;40172;53.022;7.012;2024-03-22T10:10:22;25.02;;;15.77;;
54259;SDS011;40172;53.022;7.012;2024-03-22T10:12:48;23.38;;;14.80;;
54259;SDS011;40172;53.022;7.012;2024-03-22T10:15:14;25.20;;;16.25;;
54259;SDS011;40172;53.022;7.012;2024-03-22T10:17:40;23.58;;;14.50;;
54259;SDS011;40172;53.022;7.012;2024-03-22T10:20:06;24.02;;;14.77;;
54259;SDS011;40172;53.022;7.012;2024-03-22T10:23:00;23.58;;;12.85;;
54259;SDS011;40172;53.022;7.012;2024-03-22T10:25:26;24.23;;;14.52;;
54259;SDS011;40172;53.022;7.012;2024-03-22T10:27:55;26.60;;;14.05;;
54259;SDS011;40172;53.022;7.012;2024-03-22T10:30:22;18.90;;;11.45;;
54259;SDS011;40172;53.022;7.012;2024-03-22T10:32:49;20.20;;;12.30;;
54259;SDS011;40172;53.022;7.012;2024-03-22T10:35:15;22.23;;;13.07;;
54259;SDS011;40172;53.022;7.012;2024-03-22T10:37:41;18.75;;;11.95;;
54259;SDS011;40172;53.022;7.012;2024-03-22T10:40:08;21.23;;;13.15;;
54259;SDS011;40172;53.022;7.012;2024-03-22T10:42:38;18.10;;;11.73;;
54259;SDS011;40172;53.022;7.012;2024-03-22T10:45:06;17.10;;;10.98;;
54259;SDS011;40172;53.022;7.012;2024-03-22T10:47:33;16.08;;;11.65;;
54259;SDS011;40172;53.022;7.012;2024-03-22T10:50:03;20.40;;;12.60;;
54259;SDS011;40172;53.022;7.012;2024-03-22T10:52:31;19.90;;;11.98;;
54259;SDS011;40172;53.022;7.012;2024-03-22T10:55:01;17.20;;;11.48;;
54259;SDS011;40172;53.022;7.012;2024-03-22T10:57:29;22.00;;;12.02;;
54259;SDS011;40172;53.022;7.012;2024-03-22T10:59:56;17.38;;;11.57;;
54259;SDS011;40172;53.022;7.012;2024-03-22T11:02:23;20.38;;;12.10;;
54259;SDS011;40172;53.022;7.012;2024-03-22T11:04:58;22.85;;;12.50;;
54259;SDS011;40172;53.022;7.012;2024-03-22T11:07:28;15.20;;;10.63;;
54259;SDS011;40172;53.022;7.012;2024-03-22T11:09:58;17.65;;;11.60;;
54259;SDS011;40172;53.022;7.012;2024-03-22T11:14:58;14.95;;;9.68;;
54259;SDS011;40172;53.022;7.012;2024-03-22T11:17:24;12.98;;;9.38;;
54259;SDS011;40172;53.022;7.012;2024-03-22T11:19:50;12.73;;;9.40;;
54259;SDS011;40172;53.022;7.012;2024-03-22T11:22:17;14.43;;;9.10;;
54259;SDS011;40172;53.022;7.012;2024-03-22T11:24:43;15.57;;;10.38;;
54259;SDS011;40172;53.022;7.012;2024-03-22T11:27:09;14.15;;;9.68;;
54259;SDS011;40172;53.022;7.012;2024-03-22T11:29:36;12.00;;;8.23;;
54259;SDS011;40172;53.022;7.012;2024-03-22T11:32:05;14.25;;;8.45;;
54259;SDS011;40172;53.022;7.012;2024-03-22T11:34:34;9.98;;;7.30;;
54259;SDS011;40172;53.022;7.012;2024-03-22T11:37:01;9.35;;;6.82;;
54259;SDS011;40172;53.022;7.012;2024-03-22T11:39:26;9.38;;;6.68;;
54259;SDS011;40172;53.022;7.012;2024-03-22T11:41:52;8.75;;;6.70;;
54259;SDS011;40172;53.022;7.012;2024-03-22T11:44:18;12.95;;;7.07;;
54259;SDS011;40172;53.022;7.012;2024-03-22T11:46:44;12.13;;;8.43;;
54259;SDS011;40172;53.022;7.012;2024-03-22T11:49:11;11.98;;;7.50;;
54259;SDS011;40172;53.022;7.012;2024-03-22T11:51:36;9.32;;;6.63;;
54259;SDS011;40172;53.022;7.012;2024-03-22T11:54:03;7.63;;;5.40;;
54259;SDS011;40172;53.022;7.012;2024-03-22T11:56:28;6.93;;;4.72;;
54259;SDS011;40172;53.022;7.012;2024-03-22T11:59:01;6.18;;;4.68;;
54259;SDS011;40172;53.022;7.012;2024-03-22T12:01:28;6.03;;;4.28;;
54259;SDS011;40172;53.022;7.012;2024-03-22T12:03:54;6.25;;;3.90;;
54259;SDS011;40172;53.022;7.012;2024-03-22T12:06:21;8.32;;;5.22;;
54259;SDS011;40172;53.022;7.012;2024-03-22T12:08:46;6.72;;;4.53;;
54259;SDS011;40172;53.022;7.012;2024-03-22T12:11:12;6.85;;;4.65;;
54259;SDS011;40172;53.022;7.012;2024-03-22T12:13:39;5.68;;;4.30;;
54259;SDS011;40172;53.022;7.012;2024-03-22T12:16:05;6.63;;;5.00;;
54259;SDS011;40172;53.022;7.012;2024-03-22T12:18:32;6.47;;;4.47;;
54259;SDS011;40172;53.022;7.012;2024-03-22T12:20:58;6.53;;;4.47;;
54259;SDS011;40172;53.022;7.012;2024-03-22T12:23:24;5.50;;;3.85;;
54259;SDS011;40172;53.022;7.012;2024-03-22T12:25:50;7.60;;;4.32;;
54259;SDS011;40172;53.022;7.012;2024-03-22T12:28:16;7.90;;;4.97;;
54259;SDS011;40172;53.022;7.012;2024-03-22T12:30:42;7.85;;;5.28;;
54259;SDS011;40172;53.022;7.012;2024-03-22T12:33:08;5.90;;;4.60;;
54259;SDS011;40172;53.022;7.012;2024-03-22T12:35:36;5.22;;;4.57;;
54259;SDS011;40172;53.022;7.012;2024-03-22T12:38:03;6.07;;;3.30;;
54259;SDS011;40172;53.022;7.012;2024-03-22T12:40:29;6.07;;;3.75;;
54259;SDS011;40172;53.022;7.012;2024-03-22T12:42:55;4.32;;;3.15;;
54259;SDS011;40172;53.022;7.012;2024-03-22T12:45:21;5.80;;;3.40;;
54259;SDS011;40172;53.022;7.012;2024-03-22T12:47:47;4.22;;;3.10;;
54259;SDS011;40172;53.022;7.012;2024-03-22T12:50:12;3.13;;;2.50;;
54259;SDS011;40172;53.022;7.012;2024-03-22T12:52:39;5.45;;;2.88;;
54259;SDS011;40172;53.022;7.012;2024-03-22T12:55:05;5.57;;;2.92;;
54259;SDS011;40172;53.022;7.012;2024-03-22T12:57:31;4.30;;;2.72;;
54259;SDS011;40172;53.022;7.012;2024-03-22T12:59:57;5.22;;;2.83;;
54259;SDS011;40172;53.022;7.012;2024-03-22T13:02:23;6.15;;;2.83;;
54259;SDS011;40172;53.022;7.012;2024-03-22T13:04:51;5.47;;;2.80;;
54259;SDS011;40172;53.022;7.012;2024-03-22T13:07:18;4.68;;;2.35;;
54259;SDS011;40172;53.022;7.012;2024-03-22T13:09:44;6.85;;;2.50;;
54259;SDS011;40172;53.022;7.012;2024-03-22T13:12:10;6.60;;;2.50;;
54259;SDS011;40172;53.022;7.012;2024-03-22T13:14:36;8.45;;;2.63;;
54259;SDS011;40172;53.022;7.012;2024-03-22T13:17:01;6.95;;;3.10;;
54259;SDS011;40172;53.022;7.012;2024-03-22T13:19:27;5.53;;;2.78;;
54259;SDS011;40172;53.022;7.012;2024-03-22T13:21:53;6.90;;;3.38;;
54259;SDS011;40172;53.022;7.012;2024-03-22T13:24:18;6.75;;;3.72;;
54259;SDS011;40172;53.022;7.012;2024-03-22T13:26:44;7.60;;;3.30;;
54259;SDS011;40172;53.022;7.012;2024-03-22T13:29:10;10.45;;;4.28;;
54259;SDS011;40172;53.022;7.012;2024-03-22T13:31:37;9.40;;;4.35;;
54259;SDS011;40172;53.022;7.012;2024-03-22T13:34:03;6.78;;;3.97;;
54259;SDS011;40172;53.022;7.012;2024-03-22T13:36:29;10.18;;;4.30;;
54259;SDS011;40172;53.022;7.012;2024-03-22T13:38:57;10.55;;;4.05;;
54259;SDS011;40172;53.022;7.012;2024-03-22T13:41:23;9.75;;;4.32;;
54259;SDS011;40172;53.022;7.012;2024-03-22T13:43:49;9.77;;;3.97;;
54259;SDS011;40172;53.022;7.012;2024-03-22T13:46:14;10.07;;;4.05;;
54259;SDS011;40172;53.022;7.012;2024-03-22T13:48:42;11.23;;;4.28;;
54259;SDS011;40172;53.022;7.012;2024-03-22T13:51:08;13.85;;;4.75;;
54259;SDS011;40172;53.022;7.012;2024-03-22T13:53:34;13.65;;;4.63;;
54259;SDS011;40172;53.022;7.012;2024-03-22T13:56:00;9.02;;;4.30;;
54259;SDS011;40172;53.022;7.012;2024-03-22T13:58:26;12.05;;;4.40;;
54259;SDS011;40172;53.022;7.012;2024-03-22T14:00:52;11.82;;;4.68;;
54259;SDS011;40172;53.022;7.012;2024-03-22T14:03:18;12.18;;;5.00;;
54259;SDS011;40172;53.022;7.012;2024-03-22T14:05:44;10.88;;;4.53;;
54259;SDS011;40172;53.022;7.012;2024-03-22T14:08:09;12.60;;;4.93;;
54259;SDS011;40172;53.022;7.012;2024-03-22T14:10:35;14.32;;;4.78;;
54259;SDS011;40172;53.022;7.012;2024-03-22T14:13:01;16.20;;;5.03;;
54259;SDS011;40172;53.022;7.012;2024-03-22T14:15:28;15.32;;;4.82;;
54259;SDS011;40172;53.022;7.012;2024-03-22T14:17:57;17.38;;;5.20;;
54259;SDS011;40172;53.022;7.012;2024-03-22T14:20:23;18.30;;;5.32;;
54259;SDS011;40172;53.022;7.012;2024-03-22T14:22:49;18.25;;;5.00;;